createdAt,value
2019-06-25T00:00:49.879Z,0
2019-06-25T00:01:50.539Z,0
2019-06-25T00:02:51.198Z,0
2019-06-25T00:03:51.868Z,0
2019-06-25T00:04:52.575Z,0
2019-06-25T00:05:53.270Z,0
2019-06-25T00:06:53.929Z,0
2019-06-25T00:07:54.587Z,0
2019-06-25T00:08:55.249Z,0
2019-06-25T00:09:55.913Z,0
2019-06-25T00:10:56.618Z,0
2019-06-25T00:11:57.278Z,0
2019-06-25T00:12:57.939Z,0
2019-06-25T00:13:58.601Z,0
2019-06-25T00:15:00.720Z,0
2019-06-25T00:16:01.383Z,0
2019-06-25T00:17:02.045Z,0
2019-06-25T00:18:02.706Z,0
2019-06-25T00:19:03.409Z,0
2019-06-25T00:20:04.081Z,0
2019-06-25T00:21:06.187Z,0
2019-06-25T00:22:06.848Z,0
2019-06-25T00:23:07.508Z,0
2019-06-25T00:24:08.371Z,0
2019-06-25T00:25:09.031Z,0
2019-06-25T00:26:09.694Z,0
2019-06-25T00:27:10.364Z,0
2019-06-25T00:28:11.015Z,0
2019-06-25T00:29:11.675Z,0
2019-06-25T00:30:12.338Z,0
2019-06-25T00:31:12.998Z,0
2019-06-25T00:32:13.658Z,0
2019-06-25T00:33:14.318Z,0
2019-06-25T00:34:15.997Z,0
2019-06-25T00:35:16.706Z,0
2019-06-25T00:36:17.380Z,0
2019-06-25T00:37:18.055Z,0
2019-06-25T00:38:18.769Z,0
2019-06-25T00:39:19.445Z,0
2019-06-25T00:40:20.120Z,0
2019-06-25T00:41:20.792Z,0
2019-06-25T00:42:21.463Z,0
2019-06-25T00:43:22.193Z,0
2019-06-25T00:44:22.820Z,0
2019-06-25T00:45:23.487Z,0
2019-06-25T00:46:24.159Z,0
2019-06-25T00:47:24.829Z,0
2019-06-25T00:48:25.515Z,0
2019-06-25T00:49:26.215Z,0
2019-06-25T00:50:26.886Z,0
2019-06-25T00:51:27.560Z,0
2019-06-25T00:52:28.231Z,0
2019-06-25T00:53:28.941Z,0
2019-06-25T00:54:29.621Z,0
2019-06-25T00:55:30.285Z,0
2019-06-25T00:56:30.959Z,0
2019-06-25T00:57:31.634Z,0
2019-06-25T00:58:32.349Z,0
2019-06-25T00:59:33.029Z,0
2019-06-25T01:00:33.691Z,0
2019-06-25T01:01:34.361Z,0
2019-06-25T01:02:35.033Z,0
2019-06-25T01:03:35.744Z,0
2019-06-25T01:04:36.419Z,0
2019-06-25T01:05:37.129Z,0
2019-06-25T01:06:37.801Z,0
2019-06-25T01:07:38.479Z,0
2019-06-25T03:18:17.388Z,316
2019-06-25T03:19:18.055Z,340
2019-06-25T03:20:18.725Z,356
2019-06-25T03:21:19.395Z,376
2019-06-25T03:22:20.106Z,396
2019-06-25T03:23:20.778Z,424
2019-06-25T03:24:21.448Z,444
2019-06-25T03:25:22.118Z,464
2019-06-25T03:26:22.790Z,480
2019-06-25T03:27:23.462Z,504
2019-06-25T03:28:24.131Z,532
2019-06-25T03:29:24.802Z,560
2019-06-25T03:30:25.475Z,580
2019-06-25T03:31:26.178Z,596
2019-06-25T03:32:26.851Z,616
2019-06-25T03:33:27.517Z,640
2019-06-25T03:34:28.187Z,672
2019-06-25T03:35:28.870Z,700
2019-06-25T03:36:29.531Z,728
2019-06-25T03:37:30.201Z,752
2019-06-25T03:38:30.871Z,776
2019-06-25T03:39:31.558Z,804
2019-06-25T03:40:32.243Z,828
2019-06-25T03:41:32.922Z,852
2019-06-25T03:42:33.594Z,872
2019-06-25T03:43:34.263Z,892
2019-06-25T03:44:34.933Z,912
2019-06-25T03:45:35.607Z,940
2019-06-25T03:46:36.310Z,972
2019-06-25T03:47:36.983Z,1000
2019-06-25T03:48:37.690Z,1024
2019-06-25T03:49:38.361Z,1044
2019-06-25T03:50:39.034Z,1060
2019-06-25T03:51:39.706Z,1076
2019-06-25T03:52:40.377Z,1092
2019-06-25T03:53:41.049Z,1104
2019-06-25T03:54:41.725Z,1128
2019-06-25T03:55:42.438Z,1148
2019-06-25T03:56:43.103Z,1168
2019-06-25T03:57:43.774Z,1196
2019-06-25T03:58:44.445Z,1216
2019-06-25T03:59:45.116Z,1240
2019-06-25T04:00:45.842Z,1260
2019-06-25T04:01:46.550Z,1284
2019-06-25T04:02:47.219Z,1308
2019-06-25T04:03:47.892Z,1332
2019-06-25T04:04:48.563Z,1356
2019-06-25T04:05:49.239Z,1380
2019-06-25T04:06:49.906Z,1396
2019-06-25T04:07:50.577Z,1412
2019-06-25T04:08:51.249Z,1428
2019-06-25T04:09:51.942Z,1444
2019-06-25T04:10:52.594Z,1464
2019-06-25T04:11:53.266Z,1484
2019-06-25T04:12:53.939Z,1512
2019-06-25T04:13:54.611Z,1536
2019-06-25T04:14:55.285Z,1560
2019-06-25T04:15:55.955Z,1588
2019-06-25T04:16:56.630Z,1616
2019-06-25T04:17:57.303Z,1648
2019-06-25T04:18:57.974Z,1692
2019-06-25T04:19:58.645Z,1744
2019-06-25T04:20:59.323Z,1796
2019-06-25T04:22:00.030Z,1856
2019-06-25T04:23:00.705Z,1920
2019-06-25T04:24:01.472Z,1972
2019-06-25T04:25:02.145Z,2016
2019-06-25T04:26:02.830Z,2068
2019-06-25T04:27:03.529Z,2116
2019-06-25T04:28:04.198Z,2164
2019-06-25T04:29:04.872Z,2224
2019-06-25T04:30:05.544Z,2272
2019-06-25T04:31:06.217Z,2328
2019-06-25T04:32:06.891Z,2384
2019-06-25T04:33:07.596Z,2436
2019-06-25T04:34:08.238Z,2488
2019-06-25T04:35:08.913Z,2536
2019-06-25T04:36:09.586Z,2576
2019-06-25T04:37:10.298Z,2604
2019-06-25T04:38:10.968Z,2616
2019-06-25T04:39:11.640Z,2644
2019-06-25T04:40:12.345Z,2692
2019-06-25T04:41:14.078Z,2748
2019-06-25T04:42:13.697Z,2820
2019-06-25T04:43:14.373Z,2884
2019-06-25T04:44:15.080Z,2912
2019-06-25T04:45:15.754Z,2920
2019-06-25T04:46:16.428Z,2920
2019-06-25T04:47:17.100Z,2936
2019-06-25T04:48:17.773Z,2952
2019-06-25T04:49:18.455Z,2972
2019-06-25T04:50:19.122Z,2996
2019-06-25T04:51:19.799Z,3016
2019-06-25T04:52:20.470Z,3048
2019-06-25T04:53:21.142Z,3084
2019-06-25T04:54:21.815Z,3104
2019-06-25T04:55:22.488Z,3132
2019-06-25T04:56:23.163Z,3148
2019-06-25T04:57:23.836Z,3172
2019-06-25T04:58:24.509Z,3180
2019-06-25T04:59:25.258Z,3184
2019-06-25T05:00:25.938Z,3180
2019-06-25T05:01:26.957Z,3176
2019-06-25T05:02:27.643Z,3176
2019-06-25T05:03:28.315Z,3184
2019-06-25T05:04:28.989Z,3176
2019-06-25T05:05:29.675Z,3172
2019-06-25T05:06:30.371Z,3172
2019-06-25T05:07:31.044Z,3156
2019-06-25T05:08:31.715Z,3152
2019-06-25T05:09:32.388Z,3156
2019-06-25T05:10:33.063Z,3152
2019-06-25T05:11:33.743Z,3132
2019-06-25T05:12:34.410Z,3092
2019-06-25T05:13:35.084Z,3052
2019-06-25T05:14:35.758Z,3024
2019-06-25T05:15:36.431Z,3000
2019-06-25T05:16:37.103Z,3024
2019-06-25T05:17:37.779Z,3004
2019-06-25T05:18:38.453Z,2940
2019-06-25T05:19:39.130Z,2856
2019-06-25T05:20:39.804Z,2780
2019-06-25T05:21:40.515Z,2752
2019-06-25T05:22:41.189Z,2768
2019-06-25T05:23:41.861Z,2824
2019-06-25T05:24:42.542Z,2892
2019-06-25T05:25:43.248Z,2964
2019-06-25T05:26:43.927Z,2996
2019-06-25T05:27:44.598Z,2996
2019-06-25T05:28:45.296Z,2992
2019-06-25T05:29:45.944Z,2992
2019-06-25T05:30:46.622Z,2976
2019-06-25T05:31:47.327Z,2928
2019-06-25T05:32:48.002Z,2864
2019-06-25T05:33:48.675Z,2772
2019-06-25T05:34:49.388Z,2692
2019-06-25T05:35:50.063Z,2668
2019-06-25T05:36:50.763Z,2740
2019-06-25T05:37:51.449Z,2844
2019-06-25T05:38:52.126Z,2892
2019-06-25T05:39:52.845Z,2936
2019-06-25T05:40:53.510Z,3004
2019-06-25T05:41:54.182Z,3104
2019-06-25T05:42:54.855Z,3140
2019-06-25T05:43:55.531Z,3204
2019-06-25T05:44:56.244Z,3292
2019-06-25T05:45:56.936Z,3416
2019-06-25T05:46:57.593Z,3532
2019-06-25T05:47:58.272Z,3656
2019-06-25T05:48:58.948Z,3772
2019-06-25T05:49:59.610Z,3884
2019-06-25T05:51:00.285Z,3960
2019-06-25T05:52:00.963Z,4068
2019-06-25T05:53:03.404Z,4204
2019-06-25T05:54:03.306Z,4352
2019-06-25T05:55:03.979Z,4480
2019-06-25T05:56:04.656Z,4612
2019-06-25T05:57:05.331Z,4728
2019-06-25T05:58:06.005Z,4872
2019-06-25T05:59:06.683Z,5068
2019-06-25T06:00:07.397Z,5280
2019-06-25T06:01:08.071Z,5520
2019-06-25T06:02:08.783Z,5764
2019-06-25T06:03:19.705Z,6048
2019-06-25T06:04:11.127Z,6332
2019-06-25T06:05:11.805Z,6668
2019-06-25T06:06:15.340Z,7072
2019-06-25T06:07:14.151Z,7572
2019-06-25T06:08:14.827Z,8296
2019-06-25T06:09:15.511Z,9300
2019-06-25T06:10:16.191Z,32576
2019-06-25T06:11:16.863Z,57440
2019-06-25T06:12:17.536Z,60288
2019-06-25T06:13:18.213Z,56288
2019-06-25T06:14:18.890Z,64064
2019-06-25T06:15:19.566Z,78656
2019-06-25T06:16:20.246Z,72384
2019-06-25T06:17:20.936Z,64640
2019-06-25T06:18:21.652Z,72800
2019-06-25T06:19:22.330Z,72224
2019-06-25T06:20:23.012Z,76960
2019-06-25T06:22:25.383Z,56928
2019-06-25T06:23:26.046Z,59808
2019-06-25T06:24:26.716Z,66112
2019-06-25T06:25:27.389Z,66336
2019-06-25T06:26:28.057Z,64576
2019-06-25T06:27:28.727Z,58464
2019-06-25T06:28:29.434Z,63904
2019-06-25T06:29:30.106Z,62144
2019-06-25T06:30:31.734Z,62880
2019-06-25T06:31:32.388Z,57024
2019-06-25T06:32:33.096Z,56160
2019-06-25T06:33:37.127Z,53344
2019-06-25T06:34:34.473Z,53056
2019-06-25T06:35:35.144Z,60928
2019-06-25T06:36:35.815Z,53888
2019-06-25T06:37:36.486Z,54592
2019-06-25T06:38:37.160Z,55104
2019-06-25T06:39:37.879Z,40192
2019-06-25T06:40:38.585Z,36192
2019-06-25T06:41:39.253Z,41408
2019-06-25T06:43:55.482Z,47936
2019-06-25T06:44:56.158Z,45408
2019-06-25T06:45:56.829Z,42112
2019-06-25T06:46:57.502Z,43904
2019-06-25T06:47:58.185Z,50432
2019-06-25T06:48:58.844Z,47200
2019-06-25T06:49:59.554Z,31552
2019-06-25T06:51:00.228Z,34688
2019-06-25T06:52:00.900Z,43424
2019-06-25T06:53:01.627Z,43392
2019-06-25T06:54:02.326Z,56928
2019-06-25T06:55:02.997Z,55840
2019-06-25T06:56:03.717Z,52384
2019-06-25T06:57:04.416Z,54720
2019-06-25T06:58:05.387Z,54432
2019-06-25T06:59:05.799Z,53024
2019-06-25T07:00:06.476Z,60672
2019-06-25T07:01:07.147Z,49376
2019-06-25T07:02:07.824Z,73440
2019-06-25T07:04:38.254Z,73792
2019-06-25T07:05:39.516Z,75936
2019-06-25T07:06:40.191Z,67872
2019-06-25T07:07:40.868Z,64224
2019-06-25T07:09:57.058Z,51456
2019-06-25T07:10:57.894Z,46304
2019-06-25T07:11:58.468Z,41824
2019-06-25T07:12:59.191Z,32224
2019-06-25T07:13:59.875Z,25824
2019-06-25T07:15:00.564Z,21728
2019-06-25T07:16:01.245Z,15480
2019-06-25T07:17:01.944Z,16832
2019-06-25T07:18:02.720Z,17984
2019-06-25T07:19:03.378Z,21696
2019-06-25T07:20:04.099Z,28864
2019-06-25T07:21:04.783Z,35968
2019-06-25T07:22:08.862Z,42752
2019-06-25T07:23:06.186Z,47264
2019-06-25T07:24:06.871Z,48032
2019-06-25T07:25:07.557Z,51232
2019-06-25T07:26:08.242Z,50432
2019-06-25T07:27:08.926Z,52416
2019-06-25T07:28:09.612Z,52736
2019-06-25T07:29:10.299Z,54368
2019-06-25T07:30:10.984Z,54528
2019-06-25T07:31:11.669Z,51936
2019-06-25T07:32:12.351Z,43328
2019-06-25T07:33:13.036Z,37376
2019-06-25T07:34:13.738Z,34272
2019-06-25T07:35:14.444Z,37376
2019-06-25T07:36:15.128Z,34912
2019-06-25T07:37:15.815Z,43232
2019-06-25T07:38:16.501Z,51392
2019-06-25T07:39:17.186Z,55616
2019-06-25T07:40:17.872Z,51456
2019-06-25T07:41:18.557Z,46048
2019-06-25T07:42:19.240Z,32576
2019-06-25T07:43:19.933Z,39456
2019-06-25T07:44:20.651Z,44576
2019-06-25T07:45:21.337Z,48128
2019-06-25T07:46:22.020Z,48544
2019-06-25T07:47:22.703Z,45024
2019-06-25T07:48:23.427Z,40608
2019-06-25T07:49:24.111Z,40192
2019-06-25T07:50:24.797Z,44032
2019-06-25T07:51:25.484Z,52832
2019-06-25T07:52:26.168Z,48256
2019-06-25T07:53:26.853Z,52160
2019-06-25T07:54:27.541Z,54560
2019-06-25T07:55:28.226Z,56704
2019-06-25T07:56:36.598Z,55968
2019-06-25T07:57:29.633Z,51584
2019-06-25T07:58:30.312Z,50496
2019-06-25T07:59:30.997Z,45856
2019-06-25T08:00:31.694Z,52160
2019-06-25T08:01:32.426Z,50496
2019-06-25T08:02:33.133Z,50080
2019-06-25T08:03:33.818Z,51168
2019-06-25T08:04:34.509Z,52256
2019-06-25T08:05:35.337Z,54976
2019-06-25T08:06:35.943Z,55936
2019-06-25T08:07:36.665Z,55648
2019-06-25T08:08:37.351Z,57056
2019-06-25T08:09:38.050Z,57376
2019-06-25T08:10:40.989Z,54336
2019-06-25T08:11:40.403Z,54304
2019-06-25T08:12:41.079Z,48736
2019-06-25T08:13:41.768Z,40576
2019-06-25T08:14:42.453Z,39616
2019-06-25T08:15:43.139Z,37120
2019-06-25T08:16:43.829Z,25760
2019-06-25T08:17:44.531Z,17536
2019-06-25T08:18:45.222Z,16500
2019-06-25T08:19:45.916Z,15752
2019-06-25T08:20:46.600Z,15244
2019-06-25T08:21:47.288Z,14668
2019-06-25T08:22:47.995Z,13824
2019-06-25T08:23:48.691Z,13512
2019-06-25T08:24:49.474Z,12936
2019-06-25T08:25:50.172Z,12300
2019-06-25T08:26:50.888Z,11800
2019-06-25T08:27:51.570Z,11480
2019-06-25T08:28:52.257Z,11468
2019-06-25T08:29:52.946Z,11336
2019-06-25T08:30:53.624Z,11224
2019-06-25T08:31:54.309Z,11040
2019-06-25T08:32:54.996Z,10872
2019-06-25T08:33:55.679Z,10568
2019-06-25T08:34:56.363Z,10288
2019-06-25T08:35:57.049Z,10208
2019-06-25T08:36:57.730Z,9928
2019-06-25T08:37:58.415Z,9620
2019-06-25T08:38:59.097Z,9492
2019-06-25T08:39:59.802Z,9240
2019-06-25T08:41:00.513Z,9048
2019-06-25T08:42:01.189Z,8944
2019-06-25T08:43:01.871Z,8956
2019-06-25T08:44:02.554Z,8924
2019-06-25T08:45:03.399Z,8656
2019-06-25T08:46:04.030Z,8576
2019-06-25T08:47:04.710Z,8484
2019-06-25T08:48:05.453Z,8372
2019-06-25T08:49:06.085Z,8240
2019-06-25T08:50:06.782Z,8188
2019-06-25T08:51:07.504Z,8432
2019-06-25T08:52:08.222Z,8344
2019-06-25T08:53:08.906Z,8272
2019-06-25T08:54:09.587Z,8104
2019-06-25T08:55:10.271Z,8016
2019-06-25T08:56:10.955Z,7964
2019-06-25T08:57:11.639Z,7872
2019-06-25T08:58:12.326Z,7808
2019-06-25T08:59:13.003Z,7716
2019-06-25T09:00:13.686Z,7548
2019-06-25T09:01:14.371Z,7484
2019-06-25T09:02:15.052Z,7368
2019-06-25T09:03:15.734Z,7204
2019-06-25T09:04:16.420Z,7188
2019-06-25T09:05:17.102Z,7216
2019-06-25T09:06:17.788Z,7192
2019-06-25T09:07:18.510Z,7028
2019-06-25T09:08:19.184Z,6960
2019-06-25T09:09:19.866Z,6908
2019-06-25T09:10:20.548Z,6904
2019-06-25T09:11:21.230Z,6744
2019-06-25T09:12:21.914Z,6784
2019-06-25T09:13:22.597Z,6720
2019-06-25T09:14:23.279Z,6704
2019-06-25T09:15:23.963Z,6748
2019-06-25T09:16:24.649Z,6780
2019-06-25T09:17:25.331Z,6768
2019-06-25T09:18:26.020Z,6732
2019-06-25T09:19:26.695Z,6768
2019-06-25T09:20:27.380Z,6824
2019-06-25T09:21:28.061Z,6792
2019-06-25T09:22:28.746Z,6784
2019-06-25T09:23:29.429Z,6760
2019-06-25T09:24:30.112Z,6892
2019-06-25T09:25:30.794Z,6992
2019-06-25T09:26:31.506Z,7056
2019-06-25T09:27:32.202Z,6904
2019-06-25T09:28:32.884Z,7104
2019-06-25T09:29:33.572Z,7180
2019-06-25T09:30:36.903Z,7236
2019-06-25T09:31:35.919Z,7296
2019-06-25T09:32:36.609Z,7296
2019-06-25T09:33:37.286Z,7364
2019-06-25T09:34:37.969Z,7444
2019-06-25T09:35:38.650Z,7520
2019-06-25T09:36:39.390Z,7596
2019-06-25T09:37:40.016Z,7584
2019-06-25T09:38:40.698Z,7532
2019-06-25T09:39:41.379Z,7544
2019-06-25T09:40:42.068Z,7544
2019-06-25T09:41:42.750Z,7524
2019-06-25T09:42:43.430Z,7568
2019-06-25T09:43:59.000Z,7428
2019-06-25T09:44:45.792Z,7136
2019-06-25T09:45:46.476Z,6864
2019-06-25T09:46:47.161Z,6784
2019-06-25T09:47:47.840Z,6908
2019-06-25T09:48:48.524Z,7048
2019-06-25T09:49:49.208Z,7112
2019-06-25T09:50:49.893Z,7036
2019-06-25T09:51:50.577Z,6932
2019-06-25T09:52:51.301Z,6776
2019-06-25T09:53:52.045Z,6708
2019-06-25T09:54:52.753Z,6656
2019-06-25T09:55:53.434Z,6652
2019-06-25T09:56:54.144Z,6568
2019-06-25T09:57:54.832Z,6460
2019-06-25T09:58:55.514Z,6348
2019-06-25T09:59:56.195Z,6360
2019-06-25T10:00:57.165Z,6104
2019-06-25T10:01:57.653Z,6064
2019-06-25T10:02:58.337Z,6056
2019-06-25T10:03:59.067Z,6076
2019-06-25T10:04:59.778Z,5948
2019-06-25T10:06:00.461Z,5912
2019-06-25T10:07:01.144Z,5896
2019-06-25T10:08:01.825Z,5892
2019-06-25T10:09:02.512Z,5848
2019-06-25T10:10:03.193Z,5836
2019-06-25T10:11:03.882Z,5772
2019-06-25T10:12:04.557Z,5764
2019-06-25T10:13:05.239Z,5720
2019-06-25T10:14:05.920Z,5680
2019-06-25T10:15:06.617Z,5548
2019-06-25T10:16:07.395Z,5540
2019-06-25T10:17:08.059Z,5476
2019-06-25T10:18:08.780Z,5396
2019-06-25T10:19:09.463Z,5344
2019-06-25T10:20:10.206Z,5368
2019-06-25T10:21:10.906Z,5316
2019-06-25T10:22:11.587Z,5188
2019-06-25T10:23:12.272Z,5204
2019-06-25T10:24:12.951Z,5128
2019-06-25T10:25:13.637Z,5128
2019-06-25T10:26:14.331Z,5156
2019-06-25T10:27:15.005Z,5236
2019-06-25T10:28:28.787Z,5284
2019-06-25T10:29:17.360Z,5316
2019-06-25T10:30:18.043Z,5284
2019-06-25T10:31:18.766Z,5260
2019-06-25T10:32:19.471Z,5232
2019-06-25T10:33:20.123Z,5180
2019-06-25T10:34:20.802Z,5132
2019-06-25T10:35:21.494Z,5084
2019-06-25T10:36:22.179Z,5016
2019-06-25T10:37:22.863Z,4980
2019-06-25T10:38:23.547Z,4924
2019-06-25T10:39:24.229Z,4852
2019-06-25T10:40:24.920Z,4800
2019-06-25T10:41:25.657Z,4772
2019-06-25T10:42:26.353Z,4720
2019-06-25T10:43:27.034Z,4680
2019-06-25T10:44:43.361Z,4652
2019-06-25T10:45:44.024Z,4568
2019-06-25T10:46:57.581Z,4460
2019-06-25T10:47:58.261Z,4384
2019-06-25T10:48:58.960Z,4368
2019-06-25T10:49:59.672Z,4376
2019-06-25T10:51:00.332Z,4372
2019-06-25T10:52:01.039Z,4356
2019-06-25T10:54:04.492Z,4300
2019-06-25T10:55:05.160Z,4272
2019-06-25T10:56:05.829Z,4248
2019-06-25T10:57:06.499Z,4224
2019-06-25T10:58:07.167Z,4196
2019-06-25T10:59:07.843Z,4176
2019-06-25T11:00:08.540Z,4216
2019-06-25T11:01:09.188Z,4196
2019-06-25T11:02:10.024Z,4168
2019-06-25T11:03:10.797Z,4140
2019-06-25T11:04:11.474Z,4148
2019-06-25T11:05:12.176Z,4120
2019-06-25T11:06:12.853Z,4108
2019-06-25T11:07:13.517Z,4160
2019-06-25T11:08:14.223Z,4152
2019-06-25T11:09:14.943Z,4172
2019-06-25T11:10:15.611Z,4176
2019-06-25T11:11:16.319Z,4188
2019-06-25T11:12:16.986Z,4188
2019-06-25T11:13:17.669Z,4136
2019-06-25T11:14:18.395Z,4072
2019-06-25T11:15:19.030Z,4000
2019-06-25T11:16:19.720Z,3984
2019-06-25T11:17:20.399Z,4084
2019-06-25T11:18:21.075Z,3988
2019-06-25T11:19:21.726Z,3984
2019-06-25T11:20:22.398Z,4048
2019-06-25T11:21:23.107Z,4124
2019-06-25T11:22:23.811Z,4128
2019-06-25T11:23:24.480Z,4104
2019-06-25T11:24:25.181Z,4136
2019-06-25T11:25:25.854Z,4152
2019-06-25T11:26:26.531Z,4168
2019-06-25T11:27:27.236Z,4172
2019-06-25T11:28:27.911Z,4192
2019-06-25T11:29:28.570Z,4200
2019-06-25T11:30:29.244Z,4224
2019-06-25T11:31:29.920Z,4244
2019-06-25T11:32:30.701Z,4248
2019-06-25T11:33:31.323Z,4264
2019-06-25T11:34:31.994Z,4272
2019-06-25T11:35:32.663Z,4288
2019-06-25T11:36:33.333Z,4308
2019-06-25T11:37:34.041Z,4328
2019-06-25T11:38:34.760Z,4328
2019-06-25T11:39:35.470Z,4308
2019-06-25T11:40:36.137Z,4316
2019-06-25T11:41:36.814Z,4332
2019-06-25T11:42:37.515Z,4296
2019-06-25T11:43:44.097Z,4308
2019-06-25T11:44:39.853Z,4252
2019-06-25T11:45:40.526Z,4272
2019-06-25T11:46:41.224Z,4280
2019-06-25T11:47:41.893Z,4308
2019-06-25T11:48:42.563Z,4336
2019-06-25T11:49:43.237Z,4408
2019-06-25T11:50:43.902Z,4464
2019-06-25T11:51:44.573Z,4476
2019-06-25T11:52:45.243Z,4496
2019-06-25T11:53:45.949Z,4512
2019-06-25T11:54:46.617Z,4520
2019-06-25T11:55:47.288Z,4540
2019-06-25T11:56:47.959Z,4552
2019-06-25T11:57:48.630Z,4544
2019-06-25T11:58:49.302Z,4544
2019-06-25T11:59:49.973Z,4528
2019-06-25T12:00:50.641Z,4500
2019-06-25T12:01:51.304Z,4452
2019-06-25T12:02:52.045Z,4304
2019-06-25T12:03:52.724Z,4364
2019-06-25T12:04:53.395Z,4220
2019-06-25T12:05:54.063Z,4148
2019-06-25T12:06:55.061Z,4104
2019-06-25T12:07:55.734Z,4096
2019-06-25T12:08:56.402Z,4060
2019-06-25T12:09:57.332Z,3988
2019-06-25T12:10:57.775Z,3972
2019-06-25T12:11:58.444Z,4128
2019-06-25T12:12:59.143Z,4196
2019-06-25T12:13:59.818Z,4352
2019-06-25T12:15:00.488Z,4472
2019-06-25T12:16:01.159Z,4660
2019-06-25T12:17:01.829Z,4764
2019-06-25T12:18:02.500Z,4884
2019-06-25T12:19:03.170Z,4956
2019-06-25T12:20:03.838Z,4936
2019-06-25T12:21:04.505Z,4932
2019-06-25T12:22:05.175Z,5040
2019-06-25T12:23:05.844Z,5144
2019-06-25T12:24:06.517Z,5172
2019-06-25T12:25:07.204Z,5172
2019-06-25T12:26:07.899Z,5100
2019-06-25T12:27:08.562Z,5104
2019-06-25T12:28:09.255Z,5184
2019-06-25T12:29:09.914Z,5232
2019-06-25T12:30:10.610Z,5268
2019-06-25T12:31:11.320Z,5272
2019-06-25T12:32:12.023Z,5380
2019-06-25T12:33:12.701Z,5464
2019-06-25T12:34:13.363Z,5456
2019-06-25T12:35:14.044Z,5400
2019-06-25T12:36:14.745Z,5312
2019-06-25T12:37:15.415Z,5280
2019-06-25T12:38:16.086Z,5228
2019-06-25T12:39:16.760Z,5156
2019-06-25T12:40:20.296Z,4832
2019-06-25T12:41:19.091Z,4756
2019-06-25T12:42:19.795Z,4732
2019-06-25T12:43:20.464Z,4816
2019-06-25T12:44:21.133Z,4956
2019-06-25T12:45:21.800Z,5052
2019-06-25T12:46:22.471Z,5104
2019-06-25T12:47:23.139Z,5168
2019-06-25T12:48:23.808Z,4984
2019-06-25T12:49:24.480Z,5096
2019-06-25T12:50:25.153Z,5096
2019-06-25T12:51:25.861Z,5292
2019-06-25T12:52:26.529Z,5284
2019-06-25T12:53:27.199Z,5364
2019-06-25T12:54:27.937Z,5292
2019-06-25T12:55:28.568Z,4860
2019-06-25T12:56:29.249Z,4772
2019-06-25T12:57:29.944Z,4632
2019-06-25T12:58:30.633Z,4520
2019-06-25T12:59:31.328Z,4584
2019-06-25T13:00:32.003Z,4688
2019-06-25T13:01:41.175Z,4480
2019-06-25T13:02:34.359Z,4548
2019-06-25T13:03:35.031Z,4436
2019-06-25T13:04:35.701Z,4556
2019-06-25T13:05:36.368Z,4632
2019-06-25T13:06:37.040Z,4620
2019-06-25T13:07:37.724Z,5036
2019-06-25T13:08:38.456Z,4984
2019-06-25T13:09:39.101Z,5016
2019-06-25T13:10:44.092Z,5100
2019-06-25T13:11:41.552Z,4952
2019-06-25T13:12:42.126Z,4996
2019-06-25T13:13:42.797Z,5092
2019-06-25T13:14:43.466Z,5104
2019-06-25T13:15:44.241Z,5020
2019-06-25T13:16:44.845Z,4928
2019-06-25T13:17:45.517Z,5216
2019-06-25T13:18:46.189Z,4816
2019-06-25T13:19:46.892Z,4316
2019-06-25T13:20:47.561Z,3908
2019-06-25T13:21:48.229Z,4584
2019-06-25T13:22:48.901Z,5136
2019-06-25T13:23:49.578Z,5260
2019-06-25T13:24:51.270Z,5496
2019-06-25T13:25:51.979Z,5620
2019-06-25T13:26:52.647Z,5732
2019-06-25T13:27:53.316Z,5612
2019-06-25T13:28:53.984Z,5568
2019-06-25T13:29:54.660Z,5712
2019-06-25T13:30:55.358Z,5588
2019-06-25T13:31:56.027Z,5544
2019-06-25T13:32:56.736Z,5620
2019-06-25T13:33:57.414Z,5764
2019-06-25T13:34:58.113Z,5876
2019-06-25T13:35:58.821Z,5904
2019-06-25T13:36:59.491Z,5932
2019-06-25T13:38:00.179Z,5952
2019-06-25T13:39:00.870Z,5944
2019-06-25T13:40:01.627Z,5928
2019-06-25T13:41:02.243Z,5896
2019-06-25T13:42:05.024Z,5872
2019-06-25T13:43:04.583Z,5864
2019-06-25T13:44:05.245Z,5828
2019-06-25T13:45:05.927Z,5468
2019-06-25T13:46:06.589Z,4904
2019-06-25T13:47:07.293Z,4372
2019-06-25T13:48:12.222Z,4908
2019-06-25T13:49:09.622Z,5068
2019-06-25T13:50:10.297Z,4868
2019-06-25T13:51:10.968Z,4848
2019-06-25T13:52:11.637Z,4536
2019-06-25T13:53:12.322Z,4604
2019-06-25T13:54:13.009Z,4828
2019-06-25T13:55:13.682Z,4952
2019-06-25T13:56:14.355Z,4920
2019-06-25T13:57:15.021Z,5312
2019-06-25T13:58:15.692Z,5356
2019-06-25T13:59:16.362Z,5348
2019-06-25T14:00:17.302Z,5364
2019-06-25T14:01:17.939Z,5356
2019-06-25T14:02:18.642Z,5344
2019-06-25T14:03:19.319Z,5360
2019-06-25T14:04:20.028Z,5340
2019-06-25T14:05:21.063Z,5356
2019-06-25T14:06:21.810Z,5360
2019-06-25T14:07:22.479Z,5360
2019-06-25T14:08:23.149Z,5348
2019-06-25T14:09:23.817Z,5340
2019-06-25T14:10:24.511Z,5328
2019-06-25T14:11:25.193Z,5320
2019-06-25T14:12:25.889Z,5336
2019-06-25T14:13:26.588Z,5324
2019-06-25T14:14:27.229Z,5316
2019-06-25T14:15:27.896Z,5296
2019-06-25T14:16:28.566Z,5284
2019-06-25T14:17:29.242Z,5272
2019-06-25T14:18:29.918Z,5252
2019-06-25T14:19:30.631Z,5236
2019-06-25T14:20:31.328Z,5216
2019-06-25T14:21:34.197Z,5204
2019-06-25T14:22:32.701Z,5196
2019-06-25T14:23:33.369Z,5180
2019-06-25T14:24:34.041Z,5176
2019-06-25T14:25:34.731Z,5164
2019-06-25T14:26:35.380Z,5160
2019-06-25T14:27:36.048Z,5144
2019-06-25T14:28:36.779Z,5136
2019-06-25T14:29:37.418Z,5128
2019-06-25T14:30:38.086Z,5132
2019-06-25T14:31:38.758Z,5152
2019-06-25T14:32:39.469Z,5176
2019-06-25T14:33:40.136Z,5164
2019-06-25T14:34:40.812Z,5176
2019-06-25T14:35:41.475Z,5188
2019-06-25T14:36:42.180Z,5192
2019-06-25T14:37:42.867Z,5128
2019-06-25T14:38:43.559Z,5092
2019-06-25T14:39:44.228Z,5076
2019-06-25T14:40:44.901Z,5080
2019-06-25T14:41:45.570Z,5072
2019-06-25T14:42:46.239Z,5076
2019-06-25T14:43:46.924Z,5072
2019-06-25T14:44:47.585Z,5068
2019-06-25T14:45:48.252Z,5064
2019-06-25T14:46:48.925Z,5060
2019-06-25T14:47:49.632Z,5072
2019-06-25T14:48:50.297Z,5072
2019-06-25T14:49:50.966Z,5072
2019-06-25T14:50:51.674Z,5060
2019-06-25T14:51:52.394Z,5032
2019-06-25T14:52:53.048Z,5044
2019-06-25T14:53:53.720Z,5048
2019-06-25T14:54:54.426Z,5056
2019-06-25T14:55:55.183Z,5060
2019-06-25T14:56:56.836Z,5056
2019-06-25T14:57:57.483Z,5096
2019-06-25T14:58:58.144Z,5052
2019-06-25T14:59:58.810Z,5056
2019-06-25T15:00:59.484Z,5040
2019-06-25T15:02:00.154Z,5036
2019-06-25T15:03:00.860Z,5036
2019-06-25T15:04:01.528Z,5048
2019-06-25T15:05:02.199Z,5052
2019-06-25T15:06:02.869Z,5044
2019-06-25T15:07:03.579Z,5036
2019-06-25T15:08:04.265Z,5028
2019-06-25T15:09:04.918Z,5020
2019-06-25T15:10:05.588Z,5028
2019-06-25T15:11:06.256Z,5020
2019-06-25T15:12:06.938Z,5016
2019-06-25T15:13:07.633Z,5024
2019-06-25T15:14:08.321Z,5016
2019-06-25T15:15:09.012Z,5008
2019-06-25T15:16:09.681Z,5020
2019-06-25T15:17:10.351Z,5028
2019-06-25T15:18:11.020Z,5024
2019-06-25T15:19:11.695Z,5012
2019-06-25T15:20:12.360Z,5008
2019-06-25T15:21:13.035Z,5000
2019-06-25T15:22:13.747Z,5008
2019-06-25T15:23:16.598Z,4984
2019-06-25T15:24:16.114Z,4980
2019-06-25T15:25:16.781Z,4956
2019-06-25T15:26:17.454Z,4948
2019-06-25T15:27:18.130Z,4952
2019-06-25T15:28:18.821Z,4952
2019-06-25T15:29:19.502Z,4960
2019-06-25T15:30:20.173Z,4964
2019-06-25T15:31:20.842Z,4964
2019-06-25T15:32:21.735Z,4884
2019-06-25T15:33:22.255Z,4952
2019-06-25T15:34:22.944Z,4948
2019-06-25T15:35:23.653Z,4940
2019-06-25T15:36:24.323Z,4944
2019-06-25T15:37:24.995Z,4924
2019-06-25T15:38:25.665Z,4900
2019-06-25T15:39:26.371Z,4876
2019-06-25T15:40:27.042Z,4868
2019-06-25T15:41:27.712Z,4876
2019-06-25T15:42:28.380Z,4872
2019-06-25T15:43:32.318Z,4852
2019-06-25T15:44:29.753Z,4840
2019-06-25T15:45:30.427Z,4856
2019-06-25T15:46:31.132Z,4828
2019-06-25T15:47:31.804Z,4812